Terminal Aerodrome Forecast
Issued by NWS Anchorage, AK

Home | Current Version | Previous Version | Text Only | Print | Product List | Glossary On
Versions: 1 2 3 4 5 6 7 8 9 10 11 12 13 14 15 16 17 18 19 20
000
FTAK31 PANC 241738
TAFANC
TAF
PANC 241738Z 2418/2524 16007KT P6SM VCSH SCT018 OVC025
      TEMPO 2418/2420 6SM -SN BKN018
     FM242000 15008KT 3SM -SN SCT015 OVC025
     FM250200 15005KT P6SM VCSH SCT025 OVC040
     FM250600 VRB04KT P6SM SCT040 BKN070
     FM251000 VRB03KT P6SM VCFG SCT005 BKN035=

USA.gov is the U.S. government's official web portal to all federal, state and local government web resources and services.